Time;durP1;ratioP1;P1;durP2;ratioP2;P2;SDS_P1;SDS_P2;PMS_P1;PMS_P2;Temp;Humidity;BMP_temperature;BMP_pressure;BME280_temperature;BME280_humidity;BME280_pressure;Samples;Min_cycle;Max_cycle;Signal;HPM_P1;HPM_P2
2023/03/16 16:25:35;;;;;;;37.40;17.00;;;;;;;4.93;47.98;99672.70;102622;1291;635701;-77
2023/03/16 16:28:22;;;;;;;37.50;21.00;;;;;;;4.89;48.01;99676.23;104583;1265;94832;-78
2023/03/16 16:30:53;;;;;;;35.10;17.60;;;;;;;4.85;47.95;99677.27;105016;1257;94349;-78
2023/03/16 16:33:26;;;;;;;34.70;15.50;;;;;;;4.80;47.99;99679.41;104810;1257;106857;-77
2023/03/16 16:35:59;;;;;;;34.20;16.50;;;;;;;4.74;48.16;99680.50;104919;1264;101051;-78
2023/03/16 16:38:29;;;;;;;47.00;30.20;;;;;;;4.68;48.12;99685.30;104942;1261;182313;-78
2023/03/16 16:41:05;;;;;;;40.40;19.20;;;;;;;4.62;48.18;99684.68;105010;1261;95183;-78
2023/03/16 16:44:30;;;;;;;62.90;29.60;;;;;;;4.52;48.11;99689.59;105213;1261;94312;-77
2023/03/16 16:47:35;;;;;;;56.80;29.40;;;;;;;4.45;48.27;99691.95;105247;1261;106878;-78
2023/03/16 16:50:48;;;;;;;56.60;33.20;;;;;;;4.37;48.33;99691.71;104905;1259;100962;-77
2023/03/16 16:53:22;;;;;;;99.70;53.70;;;;;;;4.27;48.19;99697.02;105703;1253;107226;-77
2023/03/16 16:55:50;;;;;;;142.30;80.60;;;;;;;4.18;48.25;99702.77;105327;1264;96360;-74
2023/03/16 16:58:25;;;;;;;115.30;64.50;;;;;;;4.09;48.08;99704.83;106273;1253;95152;-77
2023/03/16 17:00:56;;;;;;;97.50;54.80;;;;;;;4.01;48.17;99710.91;105370;1253;108453;-81
2023/03/16 17:03:28;;;;;;;73.30;41.80;;;;;;;3.93;48.26;99717.18;105778;1253;100936;-77
2023/03/16 17:05:57;;;;;;;81.90;44.30;;;;;;;3.83;48.20;99715.05;105442;1262;106470;-77
2023/03/16 17:08:27;;;;;;;81.80;45.60;;;;;;;3.74;48.35;99716.95;105321;1263;95253;-77
2023/03/16 17:10:56;;;;;;;86.30;49.80;;;;;;;3.67;48.31;99719.28;105358;1253;95377;-76
2023/03/16 17:13:39;;;;;;;110.70;64.60;;;;;;;3.60;48.45;99721.98;105303;1259;108578;-76
2023/03/16 17:16:14;;;;;;;107.30;62.00;;;;;;;3.51;48.29;99725.42;105103;1260;100884;-76
2023/03/16 17:18:44;;;;;;;100.90;56.30;;;;;;;3.42;48.21;99725.18;105171;1253;106647;-76
2023/03/16 17:21:16;;;;;;;109.40;65.30;;;;;;;3.35;48.27;99726.48;105243;1259;95298;-76
2023/03/16 17:23:47;;;;;;;140.80;79.60;;;;;;;3.30;48.34;99726.98;105325;1258;95337;-76
2023/03/16 17:26:19;;;;;;;161.40;85.10;;;;;;;3.23;48.22;99728.44;105058;1253;108371;-77
2023/03/16 17:29:16;;;;;;;133.50;69.70;;;;;;;3.16;48.46;99730.06;105493;1258;100717;-76
2023/03/16 17:31:44;;;;;;;130.30;67.30;;;;;;;3.08;48.01;99739.94;105176;1262;108927;-76
2023/03/16 17:34:17;;;;;;;117.30;60.30;;;;;;;3.01;48.46;99737.52;105261;1261;96145;-76
2023/03/16 17:36:45;;;;;;;118.70;59.60;;;;;;;2.94;48.46;99737.02;105325;1258;95179;-77
2023/03/16 17:39:17;;;;;;;114.00;56.80;;;;;;;2.86;48.46;99738.84;105187;1262;108345;-77
2023/03/16 17:42:00;;;;;;;107.80;57.20;;;;;;;2.78;48.59;99740.14;105304;1260;101218;-77
2023/03/16 17:44:34;;;;;;;120.10;63.10;;;;;;;2.68;48.39;99742.52;105221;1259;107618;-77
2023/03/16 17:47:10;;;;;;;117.30;63.10;;;;;;;2.62;48.70;99743.23;105168;1253;95287;-75
2023/03/16 17:49:39;;;;;;;123.90;70.30;;;;;;;2.54;48.71;99745.56;105348;1257;95255;-77
2023/03/16 17:52:18;;;;;;;111.40;63.00;;;;;;;2.48;48.63;99750.61;105403;1258;108087;-77
2023/03/16 17:54:48;;;;;;;120.30;66.30;;;;;;;2.44;48.64;99749.19;105315;1260;100883;-77
2023/03/16 17:57:21;;;;;;;121.40;66.60;;;;;;;2.39;48.53;99755.81;105131;1253;107310;-77
2023/03/16 17:59:49;;;;;;;130.60;67.40;;;;;;;2.32;48.57;99764.02;105268;1257;95232;-78
2023/03/16 18:03:01;;;;;;;167.40;81.10;;;;;;;2.25;48.44;99768.62;105741;1256;95262;-84
2023/03/16 18:05:43;;;;;;;148.30;73.70;;;;;;;2.16;48.91;99767.77;108509;1253;110955;-83
2023/03/16 18:08:32;;;;;;;178.90;87.20;;;;;;;2.11;48.77;99766.01;106277;1257;100807;-82
2023/03/16 18:11:06;;;;;;;174.00;83.40;;;;;;;2.07;48.75;99771.33;105224;1261;107690;-82
2023/03/16 18:13:51;;;;;;;178.10;87.90;;;;;;;2.01;48.59;99768.35;105990;1258;96256;-84
2023/03/16 18:20:29;;;;;;;;;;;;;;;1.91;48.87;99776.30;105288;1256;110191;-83
2023/03/16 18:23:37;;;;;;;220.40;105.30;;;;;;;1.83;48.96;99778.09;105626;1252;102209;-83
2023/03/16 18:26:28;;;;;;;245.50;112.20;;;;;;;1.75;49.22;99781.27;105674;1255;109210;-84
2023/03/16 18:29:06;;;;;;;263.00;128.80;;;;;;;1.68;49.08;99785.45;105437;1262;95251;-83
2023/03/16 18:31:41;;;;;;;256.30;124.80;;;;;;;1.64;49.19;99784.33;105389;1260;95310;-77
2023/03/16 18:34:20;;;;;;;244.20;123.30;;;;;;;1.63;49.11;99792.21;105280;1260;108589;-77
2023/03/16 18:36:50;;;;;;;227.10;116.90;;;;;;;1.57;49.42;99793.95;105073;1253;100897;-75
2023/03/16 18:39:26;;;;;;;281.90;144.80;;;;;;;1.53;49.18;99794.73;105276;1253;107638;-76
2023/03/16 18:42:05;;;;;;;223.10;112.60;;;;;;;1.50;49.13;99793.23;105044;1261;95318;-81
2023/03/16 18:44:57;;;;;;;203.40;97.80;;;;;;;1.46;49.49;99796.29;105115;1253;95247;-79
2023/03/16 18:47:31;;;;;;;191.60;95.80;;;;;;;1.42;49.43;99798.30;105019;1260;110613;-78
2023/03/16 18:50:01;;;;;;;192.40;94.80;;;;;;;1.40;49.51;99802.55;104969;1255;100953;-79
2023/03/16 18:52:33;;;;;;;177.60;90.30;;;;;;;1.40;49.46;99802.90;105132;1261;108622;-78
2023/03/16 18:55:16;;;;;;;169.10;86.10;;;;;;;1.36;49.39;99807.52;105037;1266;95298;-85
2023/03/16 18:58:22;;;;;;;164.00;84.10;;;;;;;1.37;49.77;99810.31;103068;1289;635825;-80
2023/03/16 19:00:57;;;;;;;159.80;82.90;;;;;;;1.37;49.51;99808.74;104997;1267;94224;-80
2023/03/16 19:03:44;;;;;;;151.70;82.10;;;;;;;1.35;49.55;99804.94;105135;1264;94245;-83
2023/03/16 19:06:22;;;;;;;;;;;;;;;1.34;49.69;99809.84;105844;1254;106704;-79
2023/03/16 19:09:28;;;;;;;122.60;66.80;;;;;;;1.25;49.93;99804.63;105408;1259;99812;-79
2023/03/16 19:12:21;;;;;;;128.20;68.80;;;;;;;1.27;49.82;99815.77;103373;1253;2827947;-80
2023/03/16 19:15:38;;;;;;;129.50;71.40;;;;;;;1.30;49.89;99825.48;105710;1254;94385;-80
2023/03/16 19:18:30;;;;;;;125.10;66.00;;;;;;;1.31;49.73;99826.67;105742;1252;94305;-80
2023/03/16 19:21:48;;;;;;;109.50;61.50;;;;;;;1.33;49.94;99826.98;105498;1254;108680;-80
2023/03/16 19:25:05;;;;;;;;;;;;;;;;;;;;;
2023/03/16 19:28:51;;;;;;;143.60;75.30;;;;;;;1.28;49.99;99835.67;105788;1257;107885;-80
2023/03/16 19:31:39;;;;;;;142.20;81.10;;;;;;;1.26;50.16;99840.41;105441;1263;95234;-79
2023/03/16 19:34:31;;;;;;;139.40;76.70;;;;;;;1.20;50.11;99838.82;105304;1254;95275;-79
2023/03/16 19:37:19;;;;;;;128.20;69.30;;;;;;;1.12;50.19;99844.75;105124;1263;108572;-79
2023/03/16 19:40:28;;;;;;;144.50;75.00;;;;;;;1.03;50.09;99843.35;105217;1254;102327;-80
2023/03/16 19:47:03;;;;;;;128.10;66.30;;;;;;;1.01;50.36;99852.33;105554;1253;95259;-81
2023/03/16 19:49:57;;;;;;;134.10;66.90;;;;;;;0.97;50.47;99854.67;105107;1257;95703;-80
2023/03/16 19:56:45;;;;;;;117.40;57.30;;;;;;;0.86;50.50;99854.53;105610;1257;100169;-81
2023/03/16 19:59:19;;;;;;;112.80;58.40;;;;;;;0.80;50.59;99855.52;105199;1270;107877;-81
2023/03/16 20:02:57;;;;;;;112.00;60.20;;;;;;;0.77;50.59;99858.40;102591;1293;638925;-81
2023/03/16 20:05:51;;;;;;;138.00;70.60;;;;;;;0.64;50.67;99856.55;105175;1262;94403;-80
2023/03/16 20:08:27;;;;;;;135.00;68.90;;;;;;;0.62;50.74;99856.05;105016;1267;94329;-81
2023/03/16 20:15:14;;;;;;;139.50;67.70;;;;;;;0.52;50.86;99858.17;105354;1260;260214;-81
2023/03/16 20:17:51;;;;;;;151.30;72.40;;;;;;;0.51;50.91;99859.92;104769;1258;107646;-79
2023/03/16 20:20:47;;;;;;;145.20;72.10;;;;;;;0.51;50.97;99869.88;104919;1259;94365;-80
2023/03/16 20:23:40;;;;;;;143.80;69.70;;;;;;;0.47;50.87;99873.27;105119;1256;94316;-80
2023/03/16 20:26:37;;;;;;;;;;;;;;;;;;;;;
2023/03/16 20:29:39;;;;;;;146.40;73.30;;;;;;;0.43;50.83;99874.21;104921;1261;103247;-80
2023/03/16 20:32:26;;;;;;;145.90;72.30;;;;;;;0.42;51.12;99877.35;104967;1255;107387;-80
2023/03/16 20:35:43;;;;;;;147.70;75.40;;;;;;;0.40;51.01;99878.79;104725;1276;95370;-80
2023/03/16 20:38:45;;;;;;;150.70;72.50;;;;;;;0.33;51.13;99881.72;104915;1261;95865;-81
2023/03/16 20:41:37;;;;;;;164.10;83.10;;;;;;;0.35;50.87;99882.20;102176;1293;636085;-80
2023/03/16 20:45:25;;;;;;;168.10;88.40;;;;;;;0.35;51.10;99888.13;102740;1290;649486;-80
2023/03/16 20:48:19;;;;;;;;;;;;;;;;;;;;;
2023/03/16 20:50:50;;;;;;;167.10;85.60;;;;;;;0.27;51.51;99888.27;104776;1266;94377;-80
2023/03/16 20:53:22;;;;;;;154.90;79.70;;;;;;;0.22;51.31;99887.11;104974;1268;107725;-79
2023/03/16 20:55:56;;;;;;;131.40;69.90;;;;;;;0.23;51.24;99884.15;104839;1266;100862;-84
2023/03/16 20:58:29;;;;;;;154.50;76.60;;;;;;;0.20;51.39;99885.96;104717;1268;380601;-80
2023/03/16 21:01:36;;;;;;;144.20;71.30;;;;;;;0.16;51.48;99891.95;108258;1257;92975;-81
2023/03/16 21:04:41;;;;;;;128.70;63.40;;;;;;;0.11;51.62;99893.77;108343;1257;92045;-78
2023/03/16 21:07:15;;;;;;;136.70;64.00;;;;;;;0.05;51.42;99890.02;108381;1257;108017;-78
2023/03/16 21:09:47;;;;;;;132.00;65.00;;;;;;;0.05;51.48;99892.64;108275;1257;100171;-79
2023/03/16 21:12:48;;;;;;;129.40;63.00;;;;;;;0.06;51.49;99894.55;108620;1252;107627;-79
2023/03/16 21:15:22;;;;;;;123.40;61.00;;;;;;;0.05;51.71;99895.79;108682;1254;92909;-79
2023/03/16 21:18:09;;;;;;;117.20;56.60;;;;;;;0.03;51.59;99895.30;108584;1252;92926;-81
2023/03/16 21:20:48;;;;;;;115.70;57.60;;;;;;;0.00;51.69;99900.58;108583;1253;108594;-81
2023/03/16 21:23:20;;;;;;;110.00;55.70;;;;;;;0.00;51.66;99896.91;108668;1253;101368;-79
2023/03/16 21:26:13;;;;;;;106.20;53.30;;;;;;;-0.01;51.95;99894.48;108639;1253;108975;-79
2023/03/16 21:28:56;;;;;;;112.50;56.80;;;;;;;-0.02;51.83;99895.73;108696;1253;93212;-79
2023/03/16 21:31:29;;;;;;;109.10;56.30;;;;;;;0.00;51.94;99897.27;108602;1253;93011;-78
2023/03/16 21:34:00;;;;;;;109.90;56.00;;;;;;;-0.01;51.95;99897.98;108542;1253;109327;-79
2023/03/16 21:36:30;;;;;;;124.60;60.80;;;;;;;-0.05;52.01;99898.90;108640;1253;100656;-81
2023/03/16 21:39:00;;;;;;;122.80;58.30;;;;;;;-0.10;52.06;99898.11;108413;1253;92862;-79
2023/03/16 21:41:33;;;;;;;124.50;59.90;;;;;;;-0.12;51.87;99897.27;108475;1254;92977;-78
2023/03/16 21:44:11;;;;;;;133.90;60.50;;;;;;;-0.13;51.98;99897.11;108653;1256;93602;-78
2023/03/16 21:46:50;;;;;;;139.80;62.80;;;;;;;-0.12;52.16;99898.14;108689;1252;109085;-81
2023/03/16 21:49:21;;;;;;;140.10;65.20;;;;;;;-0.13;52.13;99896.23;108703;1254;93414;-81
2023/03/16 21:51:53;;;;;;;142.50;69.10;;;;;;;-0.14;52.22;99896.95;108591;1251;107938;-78
2023/03/16 21:54:24;;;;;;;146.70;66.80;;;;;;;-0.17;52.21;99896.47;108675;1252;92960;-79
2023/03/16 21:56:56;;;;;;;143.10;67.60;;;;;;;-0.19;52.17;99896.33;108681;1253;93170;-79
2023/03/16 21:59:38;;;;;;;129.30;59.20;;;;;;;-0.19;52.29;99901.91;108679;1253;108529;-79
2023/03/16 22:02:34;;;;;;;118.00;58.10;;;;;;;-0.21;52.41;99901.23;108678;1253;102996;-79
2023/03/16 22:05:28;;;;;;;118.50;56.40;;;;;;;-0.20;52.20;99901.05;108584;1254;107232;-78
2023/03/16 22:08:08;;;;;;;106.30;50.80;;;;;;;-0.22;52.42;99897.61;108505;1254;93011;-79
2023/03/16 22:11:01;;;;;;;100.00;46.20;;;;;;;-0.25;52.67;99900.09;108620;1254;93011;-78
2023/03/16 22:13:34;;;;;;;94.90;46.70;;;;;;;-0.28;52.38;99894.56;108589;1254;111065;-79
2023/03/16 22:16:25;;;;;;;93.40;46.10;;;;;;;-0.32;52.45;99893.39;108633;1253;100926;-81
2023/03/16 22:19:12;;;;;;;90.00;44.40;;;;;;;-0.33;52.57;99893.73;108595;1253;108773;-79
2023/03/16 22:21:57;;;;;;;95.30;46.60;;;;;;;-0.32;52.73;99898.27;108588;1255;93070;-78
2023/03/16 22:24:47;;;;;;;95.00;47.30;;;;;;;-0.32;52.62;99895.84;108751;1251;92907;-78
2023/03/16 22:27:25;;;;;;;103.30;50.10;;;;;;;-0.32;52.55;99901.40;108543;1251;109942;-78
2023/03/16 22:29:54;;;;;;;92.70;48.60;;;;;;;-0.32;52.80;99903.67;108688;1252;100743;-79
2023/03/16 22:32:30;;;;;;;90.30;45.80;;;;;;;-0.39;52.68;99903.77;108609;1254;107092;-80
2023/03/16 22:35:04;;;;;;;75.40;38.50;;;;;;;-0.47;52.80;99904.77;108465;1251;93397;-79
2023/03/16 22:37:50;;;;;;;;;;;;;;;;;;;;;
2023/03/16 22:40:35;;;;;;;82.70;41.40;;;;;;;-0.54;52.79;99903.64;108675;1253;107170;-79
2023/03/16 22:43:14;;;;;;;87.90;45.20;;;;;;;-0.52;52.80;99906.90;108578;1254;103261;-79
2023/03/16 22:45:55;;;;;;;;;;;;;;;;;;;;;
2023/03/16 22:48:39;;;;;;;80.20;43.00;;;;;;;-0.54;52.90;99910.96;108599;1254;93080;-79
2023/03/16 22:51:40;;;;;;;81.20;42.20;;;;;;;-0.59;53.05;99914.31;108538;1254;92926;-79
2023/03/16 22:54:21;;;;;;;78.30;41.30;;;;;;;-0.66;53.09;99913.91;108906;1254;109334;-79
2023/03/16 22:57:15;;;;;;;95.10;48.00;;;;;;;-0.69;53.37;99920.22;108666;1259;102084;-79
2023/03/16 22:59:47;;;;;;;88.10;46.40;;;;;;;-0.68;53.36;99915.84;108529;1252;106665;-81
2023/03/16 23:02:36;;;;;;;91.40;49.90;;;;;;;-0.72;53.20;99913.98;108683;1251;92924;-80
2023/03/16 23:05:28;;;;;;;94.80;51.50;;;;;;;-0.70;53.04;99919.18;108658;1252;92982;-79
2023/03/16 23:08:31;;;;;;;93.50;51.90;;;;;;;-0.74;53.28;99918.35;108750;1254;107658;-81
2023/03/16 23:13:52;;;;;;;157.60;81.40;;;;;;;-0.79;53.43;99920.66;108745;1254;108522;-79
2023/03/16 23:16:37;;;;;;;142.00;74.40;;;;;;;-0.76;53.55;99922.04;108673;1251;94294;-80
2023/03/16 23:19:31;;;;;;;126.50;64.60;;;;;;;-0.81;53.70;99921.75;108573;1257;92927;-79
2023/03/16 23:22:39;;;;;;;106.90;55.90;;;;;;;-0.88;53.68;99919.75;108667;1252;108201;-79
2023/03/16 23:25:06;;;;;;;84.60;45.20;;;;;;;-0.89;53.64;99921.67;108780;1254;100631;-79
2023/03/16 23:27:48;;;;;;;;;;;;;;;;;;;;;
2023/03/16 23:30:44;;;;;;;82.20;43.10;;;;;;;-0.95;53.89;99918.97;108786;1254;92871;-80
2023/03/16 23:33:20;;;;;;;75.80;40.60;;;;;;;-0.97;53.60;99914.10;108663;1252;93505;-82
2023/03/16 23:35:47;;;;;;;80.00;42.00;;;;;;;-0.96;53.60;99912.87;108697;1254;108267;-79
2023/03/16 23:38:22;;;;;;;88.00;44.50;;;;;;;-0.96;53.70;99913.75;108713;1251;101235;-80
2023/03/16 23:40:55;;;;;;;78.80;41.00;;;;;;;-0.96;53.84;99913.05;108744;1251;108020;-80
2023/03/16 23:43:29;;;;;;;71.30;38.30;;;;;;;-0.97;53.74;99917.23;108671;1254;92896;-80
2023/03/16 23:46:23;;;;;;;;;;;;;;;;;;;;;
2023/03/16 23:49:09;;;;;;;67.10;36.30;;;;;;;-1.14;53.94;99914.65;108775;1255;108044;-79
2023/03/16 23:51:44;;;;;;;66.70;36.10;;;;;;;-1.16;54.03;99913.27;108617;1254;100869;-79
2023/03/16 23:54:27;;;;;;;65.70;33.30;;;;;;;-1.15;54.23;99915.00;108622;1257;107671;-80
2023/03/16 23:56:58;;;;;;;65.90;32.10;;;;;;;-1.15;54.14;99921.10;108635;1254;92961;-79
2023/03/16 23:59:33;;;;;;;57.30;31.70;;;;;;;-1.20;54.01;99926.89;108629;1251;92879;-79
